This is the latest recevied weather packets stored in our database for station/object HA6IFZ-10. If no packets are shown the sender has not sent any weather packets the latest 10 day(s).
| Time | Temp. | Humidity | Pressure | Rain* | Wind** | Luminosity | Snow |
|---|---|---|---|---|---|---|---|
| 1787463173 | 26.67° C | 28% | 1028.8 hPa | - | - | - | - |
| 1787462273 | 26.11° C | 29% | 1028.6 hPa | - | - | - | - |
| 1787460473 | 25.56° C | 32% | 1028.3 hPa | - | - | - | - |
| 1787459573 | 23.33° C | 37% | 1028.2 hPa | - | - | - | - |
| 1787458673 | 21.11° C | 42% | 1028.1 hPa | - | - | - | - |
| 1787457773 | 16.67° C | 57% | 1028 hPa | - | - | - | - |
| 1787456873 | 17.22° C | 55% | 1027.9 hPa | - | - | - | - |
| 1787455973 | 17.22° C | 55% | 1027.8 hPa | - | - | - | - |
| 1787455073 | 17.22° C | 55% | 1027.8 hPa | - | - | - | - |
| 1787454172 | 17.22° C | 54% | 1027.5 hPa | - | - | - | - |
| 1787453272 | 17.78° C | 53% | 1027.6 hPa | - | - | - | - |
| 1787452372 | 17.78° C | 53% | 1027.5 hPa | - | - | - | - |
| 1787451472 | 17.78° C | 54% | 1027.3 hPa | - | - | - | - |
| 1787450572 | 17.78° C | 57% | 1027.5 hPa | - | - | - | - |
| 1787449672 | 17.78° C | 56% | 1027.6 hPa | - | - | - | - |
| 1787448772 | 17.78° C | 56% | 1027.3 hPa | - | - | - | - |
| 1787447872 | 17.78° C | 56% | 1027.2 hPa | - | - | - | - |
| 1787446972 | 17.78° C | 56% | 1027.2 hPa | - | - | - | - |
| 1787446071 | 17.78° C | 55% | 1027 hPa | - | - | - | - |
| 1787445171 | 17.78° C | 55% | 1026.9 hPa | - | - | - | - |
| 1787444271 | 18.33° C | 53% | 1026.8 hPa | - | - | - | - |
| 1787443371 | 18.89° C | 51% | 1026.8 hPa | - | - | - | - |
| 1787442471 | 18.89° C | 52% | 1026.7 hPa | - | - | - | - |
| 1787441571 | 18.33° C | 53% | 1026.7 hPa | - | - | - | - |
| 1787440671 | 18.89° C | 51% | 1026.7 hPa | - | - | - | - |
* Rain since midnight (hover to see other rain measurements)
** Current wind speed in m/s (hover to see current wind gust speed)